UIP weather

Public forecast

Using degrees Celsius for public forecast. Weather courtesy of forecast.io.

Current aviation weather report (METAR) for Quimper-Cornouaille Airport

Retrieved 2020/08/14 05:00 UTC (1 minute ago):

LFRQ 140500Z AUTO 27005KT 9999 BKN010 16/15 Q1016

Aviation forecast (TAF) for Quimper-Cornouaille Airport

Forecast is more than 6 hours old.

Retrieved 2020/08/13 21:21 UTC (8 hours ago):

TAF TAF LFRQ 132112Z 1321/1418 CNL